Athol, Kansas
Current Conditions -  °F | °C
As of 10:35 AM on Thursday 30 Oct 2014 (Local Time) from KHDE Reporting Station
Clear Clear  
Wind Chill: 54°   Ceiling: Unl
Heat Index: 54°   Visibility: 10mi
Dew Point: 33°   Wind: 14mph
Humidity: 45%   Direction: 340°NNW
Pressure: 30.2"   Gusts: 22mph
Location:  39.77°N, 98.92°W
Report Text: KHDE 301535Z AUTO 34012G19KT 10SM CLR 12/01 A3020 RMK AO2 T01200005
Loading
Personal Weather Stations






























Interactive Weather Map
Tropical Storm Tracking
New forecast layout! Learn more

10-Day Weather Forecast

Advertisements
Track Severe Weather on mobile